Time;durP1;ratioP1;P1;durP2;ratioP2;P2;SDS_P1;SDS_P2;PMS_P1;PMS_P2;Temp;Humidity;BMP_temperature;BMP_pressure;BME280_temperature;BME280_humidity;BME280_pressure;Samples;Min_cycle;Max_cycle;Signal;HPM_P1;HPM_P2
2024/04/04 00:01:34;;;;;;;3.47;0.80;;;11.70;99.90;;;;;;5074399;28;20558;-68
2024/04/04 00:03:59;;;;;;;4.32;0.80;;;11.80;99.90;;;;;;5073320;28;20059;-69
2024/04/04 00:06:25;;;;;;;4.60;0.75;;;11.80;99.90;;;;;;5069011;28;20081;-69
2024/04/04 00:08:51;;;;;;;9.27;0.68;;;11.80;99.90;;;;;;5072514;28;20025;-68
2024/04/04 00:11:19;;;;;;;3.50;0.65;;;11.80;99.90;;;;;;5077887;28;20028;-69
2024/04/04 00:13:45;;;;;;;3.33;0.70;;;11.80;99.90;;;;;;5068593;28;20020;-69
2024/04/04 00:16:11;;;;;;;3.53;0.93;;;11.80;99.90;;;;;;5073169;28;20039;-69
2024/04/04 00:18:36;;;;;;;1.85;0.90;;;11.80;99.90;;;;;;5064168;28;20040;-68
2024/04/04 00:21:02;;;;;;;4.57;0.90;;;11.80;99.90;;;;;;5074179;28;20040;-69
2024/04/04 00:23:28;;;;;;;6.90;0.90;;;11.80;99.90;;;;;;5071195;28;20037;-69
2024/04/04 00:25:53;;;;;;;4.75;0.90;;;11.80;99.90;;;;;;5069402;28;20543;-69
2024/04/04 00:28:19;;;;;;;6.25;0.82;;;11.80;99.90;;;;;;5079030;28;20043;-69
2024/04/04 00:30:45;;;;;;;6.57;1.00;;;11.80;99.90;;;;;;5073542;28;20407;-68
2024/04/04 00:33:10;;;;;;;5.05;0.80;;;11.90;99.90;;;;;;5067029;28;20037;-69
2024/04/04 00:35:36;;;;;;;7.55;0.90;;;11.90;99.90;;;;;;5068599;28;20036;-68
2024/04/04 00:38:02;;;;;;;2.38;0.65;;;11.90;99.90;;;;;;5075036;28;20127;-68
2024/04/04 00:40:34;;;;;;;4.45;0.80;;;11.90;99.90;;;;;;5077812;28;20025;-69
2024/04/04 00:43:00;;;;;;;4.50;0.70;;;11.90;99.90;;;;;;5067892;28;20117;-68
2024/04/04 00:45:25;;;;;;;3.42;0.80;;;11.90;99.90;;;;;;5073611;28;20542;-68
2024/04/04 00:47:51;;;;;;;2.25;0.80;;;11.90;99.90;;;;;;5072342;28;20044;-69
2024/04/04 00:50:17;;;;;;;3.80;0.65;;;11.90;99.90;;;;;;5064343;28;20091;-69
2024/04/04 00:52:43;;;;;;;2.78;0.60;;;11.90;99.90;;;;;;5060806;28;20052;-69
2024/04/04 00:55:09;;;;;;;3.22;0.60;;;11.90;99.90;;;;;;5060816;28;20045;-69
2024/04/04 00:57:35;;;;;;;5.60;1.15;;;11.90;99.90;;;;;;5061406;28;20036;-69
2024/04/04 01:00:03;;;;;;;5.32;1.00;;;11.90;99.90;;;;;;5060047;28;20033;-68
2024/04/04 01:02:29;;;;;;;2.67;0.93;;;11.90;99.90;;;;;;5062475;28;20063;-69
2024/04/04 01:04:54;;;;;;;4.82;0.77;;;11.90;99.90;;;;;;5062980;28;20056;-68
2024/04/04 01:07:21;;;;;;;2.80;0.60;;;11.90;99.90;;;;;;5067329;28;20042;-68
2024/04/04 01:09:46;;;;;;;4.90;0.98;;;12.00;99.90;;;;;;5064519;28;20131;-69
2024/04/04 01:12:12;;;;;;;6.22;1.33;;;11.90;99.90;;;;;;5063237;28;20107;-68
2024/04/04 01:14:38;;;;;;;4.72;1.23;;;11.90;99.90;;;;;;5050176;28;20037;-69
2024/04/04 01:17:03;;;;;;;5.63;1.05;;;11.90;99.90;;;;;;5056700;28;20481;-69
2024/04/04 01:19:29;;;;;;;2.63;1.25;;;11.90;99.90;;;;;;5056907;28;20111;-69
2024/04/04 01:21:54;;;;;;;4.80;1.63;;;11.90;99.90;;;;;;5057591;28;20086;-69
2024/04/04 01:24:20;;;;;;;7.07;1.40;;;11.90;99.90;;;;;;5055988;28;20045;-69
2024/04/04 01:26:45;;;;;;;5.78;1.00;;;11.90;99.90;;;;;;5058771;28;20576;-69
2024/04/04 01:29:11;;;;;;;9.23;1.83;;;11.90;99.90;;;;;;5070493;28;20024;-69
2024/04/04 01:31:36;;;;;;;8.10;1.67;;;12.00;99.90;;;;;;5056251;28;20017;-69
2024/04/04 01:34:02;;;;;;;5.53;1.40;;;11.90;99.90;;;;;;5058250;28;20827;-69
2024/04/04 01:36:28;;;;;;;3.15;1.60;;;11.90;99.90;;;;;;5048070;28;20050;-69
2024/04/04 01:38:53;;;;;;;2.97;1.33;;;11.90;99.90;;;;;;5062398;28;20174;-69
2024/04/04 01:41:19;;;;;;;3.17;1.38;;;12.00;99.90;;;;;;5066472;28;20052;-69
2024/04/04 01:43:44;;;;;;;6.13;1.67;;;11.90;99.90;;;;;;5073349;28;20505;-68
2024/04/04 01:46:10;;;;;;;2.85;1.27;;;11.90;99.90;;;;;;5066082;28;20055;-68
2024/04/04 01:48:36;;;;;;;5.13;1.63;;;11.90;99.90;;;;;;5073280;28;20037;-68
2024/04/04 01:51:02;;;;;;;3.83;1.27;;;11.90;99.90;;;;;;5072828;28;20043;-68
2024/04/04 01:53:27;;;;;;;7.75;1.55;;;11.90;99.90;;;;;;5075318;28;20132;-69
2024/04/04 01:55:59;;;;;;;6.78;1.55;;;11.80;99.90;;;;;;5074959;28;20593;-68
2024/04/04 01:58:25;;;;;;;3.85;1.30;;;11.80;99.90;;;;;;5069742;28;20071;-69
2024/04/04 02:00:50;;;;;;;8.20;1.70;;;11.70;99.90;;;;;;5069702;28;20125;-68
2024/04/04 02:03:16;;;;;;;5.15;1.15;;;11.70;99.90;;;;;;5077818;28;20035;-68
2024/04/04 02:05:42;;;;;;;8.02;1.45;;;11.70;99.90;;;;;;5079037;28;20553;-68
2024/04/04 02:08:07;;;;;;;7.25;1.60;;;11.60;99.90;;;;;;5078595;28;20496;-68
2024/04/04 02:10:33;;;;;;;4.50;1.30;;;11.60;99.90;;;;;;5078590;28;20039;-70
2024/04/04 02:12:59;;;;;;;7.85;1.13;;;11.60;99.90;;;;;;5076487;28;20039;-68
2024/04/04 02:15:26;;;;;;;7.90;2.28;;;11.50;99.90;;;;;;5072517;28;20178;-68
2024/04/04 02:17:51;;;;;;;7.22;1.08;;;11.50;99.90;;;;;;5062666;28;20036;-68
2024/04/04 02:20:17;;;;;;;4.07;1.10;;;11.50;99.90;;;;;;5056324;28;20028;-69
2024/04/04 02:22:43;;;;;;;4.65;1.42;;;11.40;99.90;;;;;;5086417;28;20484;-68
2024/04/04 02:25:09;;;;;;;3.90;1.00;;;11.40;99.90;;;;;;5075409;28;20060;-68
2024/04/04 02:27:35;;;;;;;3.30;1.13;;;11.40;99.90;;;;;;5073431;28;20035;-68
2024/04/04 02:30:01;;;;;;;2.10;1.10;;;11.40;99.90;;;;;;5073495;28;20037;-68
2024/04/04 02:32:28;;;;;;;5.32;1.30;;;11.40;99.90;;;;;;5077056;28;20509;-68
2024/04/04 02:34:53;;;;;;;3.78;1.30;;;11.40;99.90;;;;;;5066268;28;20033;-68
2024/04/04 02:37:19;;;;;;;5.07;1.08;;;11.40;99.90;;;;;;5075672;28;20495;-68
2024/04/04 02:39:45;;;;;;;9.63;1.00;;;11.40;99.90;;;;;;5074777;28;20490;-68
2024/04/04 02:42:10;;;;;;;4.70;0.82;;;11.40;99.90;;;;;;5074391;28;20039;-69
2024/04/04 02:44:36;;;;;;;6.60;1.00;;;11.40;99.90;;;;;;5078808;28;20119;-69
2024/04/04 02:47:03;;;;;;;5.18;1.30;;;11.40;99.90;;;;;;5071959;28;20481;-69
2024/04/04 02:49:28;;;;;;;3.60;0.90;;;11.40;99.90;;;;;;5073948;28;20083;-68
2024/04/04 02:51:54;;;;;;;5.03;1.20;;;11.40;99.90;;;;;;5075934;28;20024;-68
2024/04/04 02:54:19;;;;;;;8.75;1.05;;;11.40;99.90;;;;;;5059836;28;20106;-68
2024/04/04 02:56:48;;;;;;;5.60;0.85;;;11.40;99.90;;;;;;5074505;28;20492;-68
2024/04/04 02:59:14;;;;;;;3.70;0.98;;;11.30;99.90;;;;;;5075461;28;20020;-68
2024/04/04 03:01:40;;;;;;;7.55;1.25;;;11.30;99.90;;;;;;5067338;28;20032;-68
2024/04/04 03:04:06;;;;;;;9.73;1.00;;;11.30;99.90;;;;;;5069595;28;20037;-69
2024/04/04 03:06:34;;;;;;;4.63;0.70;;;11.30;99.90;;;;;;5079376;28;20041;-68
2024/04/04 03:08:59;;;;;;;4.00;0.80;;;11.20;99.90;;;;;;5070594;28;20115;-68
2024/04/04 03:11:26;;;;;;;5.57;0.82;;;11.20;99.90;;;;;;5074160;28;20139;-68
2024/04/04 03:13:51;;;;;;;3.85;0.98;;;11.20;99.90;;;;;;5061963;28;20036;-68
2024/04/04 03:16:17;;;;;;;7.05;1.05;;;11.20;99.90;;;;;;5081246;28;20044;-68
2024/04/04 03:18:43;;;;;;;7.13;0.98;;;11.10;99.90;;;;;;5067500;28;20559;-68
2024/04/04 03:21:08;;;;;;;5.50;0.77;;;11.10;99.90;;;;;;5073612;28;20036;-68
2024/04/04 03:23:34;;;;;;;3.53;0.75;;;11.10;99.90;;;;;;5068754;28;20120;-68
2024/04/04 03:25:59;;;;;;;4.57;0.70;;;11.10;99.90;;;;;;5074411;28;20013;-68
2024/04/04 03:28:25;;;;;;;3.90;1.33;;;11.00;99.90;;;;;;5072523;28;20572;-68
2024/04/04 03:30:51;;;;;;;4.25;1.10;;;11.00;99.90;;;;;;5072731;28;20040;-68
2024/04/04 03:33:16;;;;;;;8.43;0.90;;;10.90;99.90;;;;;;5071118;28;20056;-68
2024/04/04 03:35:42;;;;;;;4.90;1.05;;;10.90;99.90;;;;;;5076603;28;20123;-68
2024/04/04 03:38:08;;;;;;;5.55;1.10;;;10.90;99.90;;;;;;5073295;28;20472;-68
2024/04/04 03:40:33;;;;;;;2.50;0.73;;;10.90;99.90;;;;;;5069107;28;20029;-68
2024/04/04 03:43:01;;;;;;;3.45;0.85;;;10.80;99.90;;;;;;5068961;28;20079;-68
2024/04/04 03:45:27;;;;;;;2.95;0.70;;;10.80;99.90;;;;;;5072309;28;20037;-68
2024/04/04 03:47:53;;;;;;;2.60;0.93;;;10.80;99.90;;;;;;5069484;28;20037;-68
2024/04/04 03:50:18;;;;;;;8.35;1.13;;;10.80;99.90;;;;;;5075112;28;20029;-68
2024/04/04 03:52:44;;;;;;;5.45;1.15;;;10.70;99.90;;;;;;5070426;28;20024;-68
2024/04/04 03:55:09;;;;;;;10.98;1.10;;;10.70;99.90;;;;;;5070576;28;20040;-68
2024/04/04 03:57:35;;;;;;;6.30;0.95;;;10.70;99.90;;;;;;5071042;28;20040;-68
2024/04/04 04:00:03;;;;;;;8.43;1.17;;;10.70;99.90;;;;;;5070986;28;20126;-68
2024/04/04 04:02:28;;;;;;;3.83;0.73;;;10.70;99.90;;;;;;5070726;28;20093;-68
2024/04/04 04:04:54;;;;;;;3.00;0.55;;;10.60;99.90;;;;;;5068325;28;20021;-68
2024/04/04 04:07:20;;;;;;;9.40;1.00;;;10.60;99.90;;;;;;5062109;28;20489;-69
2024/04/04 04:09:45;;;;;;;4.13;0.68;;;10.60;99.90;;;;;;5066868;28;20115;-68
2024/04/04 04:12:11;;;;;;;8.13;1.27;;;10.50;99.90;;;;;;5074713;28;20032;-68
2024/04/04 04:14:37;;;;;;;5.97;0.63;;;10.50;99.90;;;;;;5072650;28;20547;-68
2024/04/04 04:17:02;;;;;;;4.80;1.17;;;10.50;99.90;;;;;;5069921;28;20120;-68
2024/04/04 04:19:28;;;;;;;8.07;0.85;;;10.40;99.90;;;;;;5073581;28;20074;-68
2024/04/04 04:21:53;;;;;;;2.20;0.55;;;10.40;99.90;;;;;;5071956;28;20501;-68
2024/04/04 04:24:19;;;;;;;4.00;0.80;;;10.40;99.90;;;;;;5071613;28;20024;-68
2024/04/04 04:26:45;;;;;;;7.38;0.80;;;10.40;99.90;;;;;;5073279;28;20488;-68
2024/04/04 04:29:11;;;;;;;2.97;0.85;;;10.40;99.90;;;;;;5074980;28;20116;-68
2024/04/04 04:31:37;;;;;;;3.67;0.65;;;10.40;99.90;;;;;;5070844;28;20396;-68
2024/04/04 04:34:03;;;;;;;9.00;1.38;;;10.30;99.90;;;;;;5071212;28;20040;-68
2024/04/04 04:36:36;;;;;;;2.55;0.85;;;10.30;99.90;;;;;;5076033;28;20082;-68
2024/04/04 04:39:02;;;;;;;16.75;0.95;;;10.30;99.90;;;;;;5072914;28;20075;-68
2024/04/04 04:41:28;;;;;;;4.55;0.75;;;10.30;99.90;;;;;;5076360;28;20063;-68
2024/04/04 04:43:54;;;;;;;4.97;0.80;;;10.30;99.90;;;;;;5075270;28;20090;-68
2024/04/04 04:46:20;;;;;;;3.35;0.57;;;10.30;99.90;;;;;;5059474;28;20687;-68
2024/04/04 04:48:46;;;;;;;6.15;0.93;;;10.30;99.90;;;;;;5066025;28;20136;-66
2024/04/04 04:51:12;;;;;;;3.95;0.82;;;10.30;99.90;;;;;;5060393;28;20032;-67
2024/04/04 04:53:39;;;;;;;3.03;0.90;;;10.30;99.90;;;;;;5074098;28;20036;-67
2024/04/04 04:56:05;;;;;;;12.15;1.55;;;10.30;99.90;;;;;;5048696;28;20029;-64
2024/04/04 04:58:31;;;;;;;10.95;1.00;;;10.30;99.90;;;;;;5072009;28;20032;-66
2024/04/04 05:00:57;;;;;;;6.63;0.68;;;10.30;99.90;;;;;;5073867;28;20089;-70
2024/04/04 05:03:24;;;;;;;8.55;1.17;;;10.30;99.90;;;;;;5073945;28;20123;-66
2024/04/04 05:05:50;;;;;;;5.95;1.00;;;10.30;99.90;;;;;;5065661;28;20143;-67
2024/04/04 05:08:19;;;;;;;2.95;0.85;;;10.30;99.90;;;;;;5076463;28;20032;-67
2024/04/04 05:10:45;;;;;;;4.03;0.52;;;10.30;99.90;;;;;;5073592;28;20063;-66
2024/04/04 05:13:11;;;;;;;4.45;1.17;;;10.30;99.90;;;;;;5075408;28;20090;-65
2024/04/04 05:15:56;;;;;;;6.18;1.13;;;10.40;99.90;;;;;;5073709;28;20044;-66
2024/04/04 05:18:22;;;;;;;2.75;0.90;;;10.40;99.90;;;;;;5074889;28;20063;-67
2024/04/04 05:20:48;;;;;;;3.15;0.70;;;10.40;99.90;;;;;;5071729;28;20033;-65
2024/04/04 05:23:14;;;;;;;6.32;1.17;;;10.40;99.90;;;;;;5061915;28;20024;-65
2024/04/04 05:25:39;;;;;;;3.40;0.90;;;10.50;99.90;;;;;;5068991;28;20517;-68
2024/04/04 05:28:06;;;;;;;5.25;0.90;;;10.50;99.90;;;;;;5074579;28;20444;-67
2024/04/04 05:30:32;;;;;;;8.80;1.10;;;10.60;99.90;;;;;;5068636;28;20045;-66
2024/04/04 05:33:01;;;;;;;4.65;1.33;;;10.60;99.90;;;;;;5068857;28;20098;-66
2024/04/04 05:35:30;;;;;;;4.68;1.15;;;10.60;99.90;;;;;;5073506;28;20401;-64
2024/04/04 05:37:56;;;;;;;7.43;1.17;;;10.60;99.90;;;;;;5070625;28;20025;-67
2024/04/04 05:40:23;;;;;;;5.88;1.13;;;10.70;99.90;;;;;;5074283;28;20054;-66
2024/04/04 05:42:49;;;;;;;5.72;0.88;;;10.70;99.90;;;;;;5067479;28;20162;-66
2024/04/04 05:45:14;;;;;;;2.53;0.90;;;10.70;99.90;;;;;;5068453;28;20637;-65
2024/04/04 05:47:40;;;;;;;2.92;0.60;;;10.80;99.90;;;;;;5073121;28;20485;-67
2024/04/04 05:50:06;;;;;;;7.15;0.70;;;10.80;99.90;;;;;;5060853;28;20107;-67
2024/04/04 05:52:31;;;;;;;4.03;0.90;;;10.80;99.90;;;;;;5065369;28;20876;-66
2024/04/04 05:54:57;;;;;;;2.75;0.88;;;10.80;99.90;;;;;;5046167;28;20087;-65
2024/04/04 05:57:23;;;;;;;9.60;1.17;;;10.90;99.90;;;;;;5059739;28;20044;-66
2024/04/04 05:59:48;;;;;;;8.10;1.10;;;10.90;99.90;;;;;;5062305;28;21237;-66
2024/04/04 06:02:14;;;;;;;3.28;0.68;;;10.90;99.90;;;;;;5064040;28;20025;-66
2024/04/04 06:04:39;;;;;;;1.85;0.63;;;10.90;99.90;;;;;;5060122;28;20436;-66
2024/04/04 06:07:05;;;;;;;11.70;1.05;;;11.00;99.90;;;;;;5061470;28;20056;-66
2024/04/04 06:09:31;;;;;;;5.75;0.70;;;11.00;99.90;;;;;;5063975;28;20409;-67
2024/04/04 06:11:56;;;;;;;4.45;0.90;;;11.00;99.90;;;;;;5062585;28;20056;-65
2024/04/04 06:14:22;;;;;;;7.95;1.10;;;11.10;99.90;;;;;;5058595;28;20047;-66
2024/04/04 06:16:48;;;;;;;7.38;1.38;;;11.10;99.90;;;;;;5061373;28;20036;-65
2024/04/04 06:19:13;;;;;;;5.05;0.88;;;11.00;99.90;;;;;;5068321;28;20044;-66
2024/04/04 06:21:39;;;;;;;8.65;1.00;;;11.00;99.90;;;;;;5073201;28;20028;-66
2024/04/04 06:24:05;;;;;;;7.60;1.00;;;11.00;99.90;;;;;;5064655;28;20500;-69
2024/04/04 06:26:31;;;;;;;6.50;0.88;;;11.00;99.90;;;;;;5074350;28;20043;-66
2024/04/04 06:28:56;;;;;;;4.22;0.60;;;11.00;99.90;;;;;;5067121;28;20210;-65
2024/04/04 06:31:23;;;;;;;5.93;1.13;;;11.00;99.90;;;;;;5065571;28;20094;-66
2024/04/04 06:33:49;;;;;;;7.35;1.38;;;10.90;99.90;;;;;;5069891;28;20765;-64
2024/04/04 06:36:16;;;;;;;5.95;0.90;;;11.00;99.90;;;;;;5075963;28;20144;-67
2024/04/04 06:38:42;;;;;;;2.67;0.90;;;11.00;99.90;;;;;;5071840;28;20166;-67
2024/04/04 06:41:08;;;;;;;7.13;1.48;;;11.00;99.90;;;;;;5074725;28;20397;-66
2024/04/04 06:43:34;;;;;;;6.82;1.08;;;11.00;99.90;;;;;;5075086;28;20154;-68
2024/04/04 06:45:59;;;;;;;9.23;1.40;;;11.00;99.90;;;;;;5069223;28;20040;-65
2024/04/04 06:48:25;;;;;;;3.20;0.90;;;11.00;99.90;;;;;;5070937;28;20037;-65
2024/04/04 06:50:50;;;;;;;5.68;0.90;;;11.00;99.90;;;;;;5075279;28;20572;-66
2024/04/04 06:53:16;;;;;;;6.82;0.90;;;11.00;99.90;;;;;;5070533;28;20021;-67
2024/04/04 06:55:42;;;;;;;4.72;0.75;;;11.00;99.90;;;;;;5072467;28;20044;-66
2024/04/04 06:58:08;;;;;;;9.02;1.00;;;11.00;99.90;;;;;;5082440;28;20056;-65
2024/04/04 07:00:33;;;;;;;8.30;0.90;;;11.20;99.90;;;;;;5084443;28;20036;-66
2024/04/04 07:02:59;;;;;;;6.28;1.00;;;11.10;99.90;;;;;;5076213;28;20157;-66
2024/04/04 07:05:25;;;;;;;6.28;0.88;;;11.00;99.90;;;;;;5075956;28;20382;-67
2024/04/04 07:07:51;;;;;;;7.90;0.63;;;11.00;99.90;;;;;;5077328;28;20016;-67
2024/04/04 07:10:17;;;;;;;3.28;0.73;;;11.10;99.90;;;;;;5076519;28;20075;-66
2024/04/04 07:12:42;;;;;;;4.88;0.80;;;11.10;99.90;;;;;;5071425;28;20036;-67
2024/04/04 07:15:08;;;;;;;2.35;0.70;;;11.10;99.90;;;;;;5070353;28;20062;-66
2024/04/04 07:17:33;;;;;;;5.63;0.80;;;11.10;99.90;;;;;;5069963;28;20699;-65
2024/04/04 07:19:59;;;;;;;5.10;0.80;;;11.10;99.90;;;;;;5074008;28;20059;-66
2024/04/04 07:22:28;;;;;;;7.80;1.58;;;11.10;99.90;;;;;;5072547;28;20052;-65
2024/04/04 07:24:54;;;;;;;4.28;0.90;;;11.20;99.90;;;;;;5068787;28;20036;-67
2024/04/04 07:27:19;;;;;;;4.43;0.75;;;11.20;99.90;;;;;;5072539;28;20035;-65
2024/04/04 07:29:46;;;;;;;2.92;1.00;;;11.20;99.90;;;;;;5070006;28;20037;-65
2024/04/04 07:32:12;;;;;;;5.90;0.80;;;11.30;99.90;;;;;;5064341;28;20033;-64
2024/04/04 07:34:38;;;;;;;1.88;0.68;;;11.30;99.90;;;;;;5061869;28;20031;-66
2024/04/04 07:37:03;;;;;;;3.95;0.80;;;11.30;99.90;;;;;;5063287;28;20469;-65
2024/04/04 07:39:31;;;;;;;3.55;0.80;;;11.30;99.90;;;;;;5062696;28;20565;-67
2024/04/04 07:41:57;;;;;;;4.60;0.95;;;11.40;99.90;;;;;;5059914;28;20025;-66
2024/04/04 07:44:23;;;;;;;6.95;0.88;;;11.40;99.90;;;;;;5068003;28;20063;-68
2024/04/04 07:46:52;;;;;;;6.35;1.00;;;11.40;99.90;;;;;;5066796;28;20055;-67
2024/04/04 07:49:18;;;;;;;8.40;0.95;;;11.50;99.90;;;;;;5064323;28;20036;-65
2024/04/04 07:51:45;;;;;;;3.25;0.85;;;11.50;99.90;;;;;;5067524;28;20036;-66
2024/04/04 07:54:10;;;;;;;3.65;0.93;;;11.50;99.90;;;;;;5067498;28;20047;-67
2024/04/04 07:56:37;;;;;;;2.78;0.73;;;11.50;99.90;;;;;;5061814;28;20036;-66
2024/04/04 07:59:02;;;;;;;3.50;1.10;;;11.50;99.90;;;;;;5065609;28;20031;-66
2024/04/04 08:01:28;;;;;;;2.75;0.70;;;11.50;99.90;;;;;;5069032;28;20024;-66
2024/04/04 08:03:53;;;;;;;2.65;0.75;;;11.60;99.90;;;;;;5067793;28;20031;-65
2024/04/04 08:06:19;;;;;;;3.47;0.75;;;11.60;99.90;;;;;;5068016;28;20036;-67
2024/04/04 08:08:45;;;;;;;2.58;0.73;;;11.60;99.90;;;;;;5067306;28;20032;-65
2024/04/04 08:11:15;;;;;;;2.75;0.80;;;11.60;99.90;;;;;;5066606;28;20021;-66
2024/04/04 08:13:43;;;;;;;3.47;1.00;;;11.60;99.90;;;;;;5066230;28;20044;-65
2024/04/04 08:16:08;;;;;;;3.33;0.57;;;11.60;99.90;;;;;;5067924;28;20036;-69
2024/04/04 08:18:34;;;;;;;5.03;0.93;;;11.60;99.90;;;;;;5062752;28;20880;-65
2024/04/04 08:21:00;;;;;;;4.75;0.90;;;11.60;99.90;;;;;;5062604;28;20041;-66
2024/04/04 08:23:26;;;;;;;3.35;1.00;;;11.70;99.90;;;;;;5065732;28;20089;-65
2024/04/04 08:25:56;;;;;;;3.08;0.63;;;11.70;99.90;;;;;;5068681;28;20037;-66
2024/04/04 08:28:21;;;;;;;4.70;1.08;;;11.70;99.90;;;;;;5068858;28;20046;-68
2024/04/04 08:30:55;;;;;;;2.75;0.77;;;11.80;99.90;;;;;;5062303;28;20127;-65
2024/04/04 08:33:21;;;;;;;3.25;0.80;;;11.70;99.90;;;;;;5068432;28;20032;-67
2024/04/04 08:35:47;;;;;;;6.13;1.30;;;11.80;99.90;;;;;;5068156;28;20079;-66
2024/04/04 08:38:13;;;;;;;3.03;0.70;;;11.80;99.90;;;;;;5064829;28;20067;-66
2024/04/04 08:40:39;;;;;;;4.40;1.05;;;11.90;99.90;;;;;;5067818;28;20029;-67
2024/04/04 08:43:06;;;;;;;1.95;0.75;;;11.90;99.90;;;;;;5062799;28;20032;-68
2024/04/04 08:45:37;;;;;;;6.70;1.05;;;11.90;99.90;;;;;;5067651;28;20028;-67
2024/04/04 08:48:05;;;;;;;6.88;0.80;;;11.90;99.90;;;;;;5066709;28;20130;-68
2024/04/04 08:50:31;;;;;;;3.45;1.00;;;11.90;99.90;;;;;;5077490;28;20729;-66
2024/04/04 08:52:57;;;;;;;1.02;0.70;;;11.80;99.90;;;;;;5072797;28;20024;-67
2024/04/04 08:55:24;;;;;;;4.57;0.93;;;11.80;99.90;;;;;;5077503;28;20039;-67
2024/04/04 08:57:49;;;;;;;3.10;0.93;;;11.80;99.90;;;;;;5069009;28;20049;-68
2024/04/04 09:00:20;;;;;;;1.83;0.73;;;11.80;99.90;;;;;;5074144;28;20036;-70
2024/04/04 09:02:45;;;;;;;3.75;1.13;;;11.90;99.90;;;;;;5072195;28;20032;-65
2024/04/04 09:05:11;;;;;;;4.65;0.98;;;11.80;99.90;;;;;;5065101;28;20028;-66
2024/04/04 09:07:37;;;;;;;1.35;0.65;;;11.90;99.90;;;;;;5061506;28;20134;-65
2024/04/04 09:10:03;;;;;;;2.47;0.93;;;11.90;99.90;;;;;;5066243;28;20066;-65
2024/04/04 09:12:29;;;;;;;5.03;1.13;;;11.90;99.90;;;;;;5063656;28;20047;-67
2024/04/04 09:14:58;;;;;;;1.13;0.82;;;11.90;99.90;;;;;;5065215;28;20037;-66
2024/04/04 09:17:26;;;;;;;6.00;1.60;;;12.00;99.90;;;;;;5066965;28;20095;-66
2024/04/04 09:19:55;;;;;;;4.18;1.38;;;12.00;99.90;;;;;;5068705;28;20718;-66
2024/04/04 09:22:25;;;;;;;1.63;0.90;;;12.10;99.90;;;;;;5063798;28;20604;-67
2024/04/04 09:24:57;;;;;;;5.88;1.30;;;12.10;99.90;;;;;;5062604;28;20032;-67
2024/04/04 09:27:22;;;;;;;5.47;1.35;;;12.10;99.90;;;;;;5059590;28;20042;-66
2024/04/04 09:29:51;;;;;;;2.70;1.23;;;12.20;99.90;;;;;;5061347;28;20397;-67
2024/04/04 09:32:19;;;;;;;3.05;0.90;;;12.20;99.90;;;;;;5067203;28;20059;-68
2024/04/04 09:34:45;;;;;;;1.58;1.25;;;12.20;99.90;;;;;;5058310;28;20024;-67
2024/04/04 09:37:15;;;;;;;5.88;1.10;;;12.30;99.90;;;;;;5068950;28;20029;-66
2024/04/04 09:39:41;;;;;;;4.53;1.10;;;12.40;99.90;;;;;;5065749;28;20041;-67
2024/04/04 09:42:08;;;;;;;4.85;1.10;;;12.50;99.90;;;;;;5061478;28;20178;-69
2024/04/04 09:44:34;;;;;;;10.60;1.60;;;12.40;99.90;;;;;;5063754;28;20056;-68
2024/04/04 09:47:05;;;;;;;6.20;1.30;;;12.50;99.90;;;;;;5058361;28;20118;-67
2024/04/04 09:49:32;;;;;;;3.03;1.20;;;12.40;99.90;;;;;;5064047;28;20504;-67
2024/04/04 09:52:01;;;;;;;2.80;1.02;;;12.50;99.90;;;;;;5063292;28;20028;-66
2024/04/04 09:54:28;;;;;;;7.97;1.45;;;12.60;99.90;;;;;;5071780;28;20098;-68
2024/04/04 09:56:55;;;;;;;2.20;1.00;;;12.70;99.90;;;;;;5078826;28;20512;-67
2024/04/04 09:59:29;;;;;;;1.65;0.93;;;12.70;99.90;;;;;;5065081;28;20036;-66
2024/04/04 10:02:05;;;;;;;6.85;1.05;;;12.80;99.90;;;;;;5069109;28;20021;-66
2024/04/04 10:04:37;;;;;;;2.45;0.98;;;12.90;99.90;;;;;;5069248;28;20039;-68
2024/04/04 10:07:04;;;;;;;5.28;1.20;;;13.00;99.90;;;;;;5077728;28;20029;-67
2024/04/04 10:09:41;;;;;;;4.28;1.00;;;13.00;99.90;;;;;;5080606;28;20047;-66
2024/04/04 10:12:10;;;;;;;2.92;0.70;;;13.00;99.90;;;;;;5071629;28;20032;-68
2024/04/04 10:14:36;;;;;;;4.25;1.08;;;13.10;99.90;;;;;;5075693;28;20035;-68
2024/04/04 10:17:06;;;;;;;2.55;0.90;;;13.10;99.90;;;;;;5073165;28;20081;-68
2024/04/04 10:19:34;;;;;;;2.70;0.93;;;13.20;99.90;;;;;;5070070;28;20028;-66
2024/04/04 10:22:01;;;;;;;2.50;0.98;;;13.20;99.90;;;;;;5077071;28;20134;-67
2024/04/04 10:24:28;;;;;;;3.10;1.05;;;13.30;99.90;;;;;;5081181;28;20040;-66
2024/04/04 10:26:59;;;;;;;3.25;0.90;;;13.30;99.90;;;;;;5078132;28;20036;-67
2024/04/04 10:29:30;;;;;;;3.75;0.98;;;13.30;99.90;;;;;;5063265;28;20405;-66
2024/04/04 10:31:56;;;;;;;4.03;0.93;;;13.30;99.90;;;;;;5069516;28;20025;-66
2024/04/04 10:34:22;;;;;;;4.22;0.98;;;13.30;99.90;;;;;;5040568;28;20033;-69
2024/04/04 10:36:47;;;;;;;4.57;1.10;;;13.30;99.90;;;;;;5072969;28;20038;-67
2024/04/04 10:39:16;;;;;;;4.20;1.15;;;13.40;99.90;;;;;;5081058;28;20032;-67
2024/04/04 10:41:44;;;;;;;1.98;0.60;;;13.40;99.90;;;;;;5078670;28;20516;-68
2024/04/04 10:44:18;;;;;;;4.82;1.00;;;13.50;99.90;;;;;;5072176;28;20482;-68
2024/04/04 10:46:47;;;;;;;4.15;1.13;;;13.40;99.90;;;;;;5067829;28;20066;-69
2024/04/04 10:49:15;;;;;;;2.38;0.73;;;13.50;99.90;;;;;;5062574;28;20041;-68
2024/04/04 10:51:46;;;;;;;1.05;0.60;;;13.50;99.90;;;;;;5068705;28;20135;-68
2024/04/04 10:54:12;;;;;;;5.63;0.88;;;13.50;99.90;;;;;;5073891;28;20036;-65
2024/04/04 10:56:38;;;;;;;3.92;1.08;;;13.50;99.90;;;;;;5080397;28;20032;-65
2024/04/04 10:59:04;;;;;;;1.73;0.88;;;13.40;99.90;;;;;;5066539;28;20522;-68
2024/04/04 11:01:30;;;;;;;3.63;1.00;;;13.40;99.90;;;;;;5076169;28;20088;-67
2024/04/04 11:03:56;;;;;;;2.53;0.80;;;13.50;99.90;;;;;;5067557;28;20768;-67
2024/04/04 11:06:27;;;;;;;2.63;1.25;;;13.50;99.90;;;;;;5067982;28;20753;-66
2024/04/04 11:08:54;;;;;;;6.00;1.77;;;13.50;99.90;;;;;;5066789;28;20058;-67
2024/04/04 11:11:21;;;;;;;4.60;1.20;;;13.50;99.90;;;;;;5073296;28;20047;-66
2024/04/04 11:13:48;;;;;;;7.57;1.60;;;13.50;99.90;;;;;;5071113;28;20086;-70
2024/04/04 11:16:14;;;;;;;6.35;1.25;;;13.60;99.90;;;;;;5073631;28;20066;-68
2024/04/04 11:18:40;;;;;;;2.83;1.30;;;13.60;99.90;;;;;;5072170;28;20041;-67
2024/04/04 11:21:07;;;;;;;2.85;1.13;;;13.60;99.90;;;;;;5065369;28;20033;-66
2024/04/04 11:23:34;;;;;;;4.18;1.73;;;13.70;99.90;;;;;;5070892;28;20260;-66
2024/04/04 11:25:59;;;;;;;2.72;0.93;;;13.70;99.90;;;;;;5069681;28;20060;-65
2024/04/04 11:28:25;;;;;;;3.20;0.80;;;13.60;99.90;;;;;;5075220;28;20070;-66
2024/04/04 11:30:51;;;;;;;3.00;1.40;;;13.60;99.90;;;;;;5072482;28;20039;-68
2024/04/04 11:33:17;;;;;;;1.63;0.82;;;13.60;99.90;;;;;;5061594;28;20041;-67
2024/04/04 11:35:44;;;;;;;3.25;0.98;;;13.60;99.90;;;;;;5074668;28;20083;-68
2024/04/04 11:38:09;;;;;;;3.97;0.93;;;13.60;99.90;;;;;;5063698;28;20046;-67
2024/04/04 11:40:35;;;;;;;5.05;0.88;;;13.60;99.90;;;;;;5064526;28;20097;-68
2024/04/04 11:43:00;;;;;;;1.98;0.57;;;13.50;99.90;;;;;;5058841;28;20032;-65
2024/04/04 11:45:26;;;;;;;0.80;0.50;;;13.50;99.90;;;;;;5060054;28;20054;-67
2024/04/04 11:47:52;;;;;;;2.25;0.60;;;13.50;99.90;;;;;;5062435;28;20060;-66
2024/04/04 11:50:17;;;;;;;0.93;0.30;;;13.60;99.90;;;;;;5066907;28;20579;-68
2024/04/04 11:52:46;;;;;;;3.78;0.63;;;13.60;99.90;;;;;;5062599;28;20386;-68
2024/04/04 11:55:11;;;;;;;1.35;0.70;;;13.60;99.90;;;;;;5063683;28;20043;-67
2024/04/04 11:57:37;;;;;;;3.22;0.70;;;13.70;99.90;;;;;;5070343;28;20032;-67
2024/04/04 12:00:04;;;;;;;3.05;0.82;;;13.80;99.90;;;;;;5066256;28;20040;-66
2024/04/04 12:02:30;;;;;;;0.93;0.60;;;13.90;99.90;;;;;;5070134;28;20071;-67
2024/04/04 12:04:55;;;;;;;1.50;0.50;;;14.00;99.90;;;;;;5061644;28;20048;-66
2024/04/04 12:07:21;;;;;;;1.92;0.55;;;14.10;99.90;;;;;;5059688;28;20047;-68
2024/04/04 12:09:47;;;;;;;0.93;0.50;;;14.20;99.90;;;;;;5058364;28;20490;-66
2024/04/04 12:12:14;;;;;;;0.90;0.57;;;14.30;99.90;;;;;;5058516;28;20044;-68
2024/04/04 12:14:40;;;;;;;2.95;0.55;;;14.30;99.90;;;;;;5055995;28;20025;-67
2024/04/04 12:17:05;;;;;;;2.97;0.57;;;14.50;99.90;;;;;;5051599;28;20024;-68
2024/04/04 12:19:31;;;;;;;1.50;0.68;;;14.50;99.90;;;;;;5070946;28;20043;-66
2024/04/04 12:21:57;;;;;;;1.30;0.30;;;14.50;99.90;;;;;;5062633;28;20413;-65
2024/04/04 12:24:23;;;;;;;0.68;0.50;;;14.50;99.90;;;;;;5072889;28;20063;-68
2024/04/04 12:26:53;;;;;;;2.20;0.68;;;14.50;99.90;;;;;;5059201;28;20037;-66
2024/04/04 12:29:19;;;;;;;1.13;0.30;;;14.60;99.90;;;;;;5067202;28;22813;-67
2024/04/04 12:31:46;;;;;;;2.05;0.25;;;14.70;99.90;;;;;;5066592;28;20028;-68
2024/04/04 12:34:11;;;;;;;2.67;0.60;;;14.60;99.90;;;;;;5061016;28;20040;-69
2024/04/04 12:36:37;;;;;;;1.80;0.57;;;14.80;99.90;;;;;;5057736;28;20098;-66
2024/04/04 12:39:08;;;;;;;3.75;0.52;;;15.00;99.90;;;;;;5064561;28;20040;-66
2024/04/04 12:41:34;;;;;;;1.55;0.35;;;15.10;99.90;;;;;;5061604;28;20102;-68